createdAt,value
2022-08-29T00:00:59.942Z,99105.19
2022-08-29T00:03:28.328Z,99113.78
2022-08-29T00:05:56.594Z,99106.34
2022-08-29T00:08:24.384Z,99109.47
2022-08-29T00:10:51.217Z,99117.09
2022-08-29T00:13:18.079Z,99123.69
2022-08-29T00:15:45.481Z,99119.28
2022-08-29T00:18:15.349Z,99115.69
2022-08-29T00:20:43.264Z,99118.31
2022-08-29T00:23:10.471Z,99118.06
2022-08-29T00:25:39.406Z,99103.03
2022-08-29T00:28:06.547Z,99100.19
2022-08-29T00:30:34.998Z,99119.25
2022-08-29T00:33:02.180Z,99110.19
2022-08-29T00:35:36.584Z,99121.50
2022-08-29T00:38:06.050Z,99093.25
2022-08-29T00:40:42.853Z,99095.63
2022-08-29T00:43:24.542Z,99115.19
2022-08-29T00:46:46.147Z,99112.09
2022-08-29T00:49:43.189Z,99107.22
2022-08-29T00:52:19.525Z,99110.56
2022-08-29T00:54:51.548Z,99122.38
2022-08-29T00:57:23.746Z,99120.56
2022-08-29T00:59:51.726Z,99120.22
2022-08-29T01:02:19.208Z,99121.88
2022-08-29T01:04:46.533Z,99127.13
2022-08-29T01:07:13.391Z,99120.81
2022-08-29T01:09:43.756Z,99104.00
2022-08-29T01:12:16.787Z,99119.97
2022-08-29T01:14:47.892Z,99128.06
2022-08-29T01:17:31.801Z,99134.97
2022-08-29T01:20:14.093Z,99130.81
2022-08-29T01:23:09.930Z,99126.97
2022-08-29T01:25:46.449Z,99138.31
2022-08-29T01:28:27.534Z,99136.63
2022-08-29T01:31:46.075Z,99141.13
2022-08-29T01:34:13.428Z,99149.72
2022-08-29T01:36:51.989Z,99142.22
2022-08-29T01:39:22.937Z,99133.63
2022-08-29T01:41:50.174Z,99138.28
2022-08-29T01:44:20.528Z,99139.72
2022-08-29T01:46:51.073Z,99101.75
2022-08-29T01:49:19.592Z,99128.63
2022-08-29T01:51:46.710Z,99122.78
2022-08-29T01:54:14.394Z,99133.28
2022-08-29T01:56:50.085Z,99131.38
2022-08-29T01:59:22.453Z,99119.88
2022-08-29T02:02:10.935Z,99117.28
2022-08-29T02:04:40.838Z,99097.72
2022-08-29T02:07:12.441Z,99109.88
2022-08-29T02:09:40.311Z,99123.00
2022-08-29T02:12:14.576Z,99118.31
2022-08-29T02:14:42.256Z,99136.22
2022-08-29T02:17:09.280Z,99130.69
2022-08-29T02:19:38.915Z,99125.56
2022-08-29T02:22:07.166Z,99140.44
2022-08-29T02:24:34.117Z,99100.97
2022-08-29T02:27:01.035Z,99122.59
2022-08-29T02:29:37.044Z,99148.81
2022-08-29T02:32:11.975Z,99139.41
2022-08-29T02:34:44.477Z,99134.03
2022-08-29T02:37:14.395Z,99132.38
2022-08-29T02:39:41.209Z,99114.97
2022-08-29T02:42:08.262Z,99118.88
2022-08-29T02:44:35.099Z,99127.72
2022-08-29T02:47:01.999Z,99129.00
2022-08-29T02:49:28.908Z,99110.88
2022-08-29T02:51:57.185Z,99120.75
2022-08-29T02:54:24.017Z,99128.84
2022-08-29T02:56:50.830Z,99114.88
2022-08-29T02:59:17.705Z,99128.47
2022-08-29T03:01:44.533Z,99115.94
2022-08-29T03:04:11.479Z,99125.47
2022-08-29T03:06:38.272Z,99127.41
2022-08-29T03:09:05.105Z,99129.09
2022-08-29T03:11:32.013Z,99130.91
2022-08-29T03:13:58.826Z,99129.38
2022-08-29T03:16:27.008Z,99138.56
2022-08-29T03:18:54.597Z,99102.53
2022-08-29T03:21:25.574Z,99127.31
2022-08-29T03:23:53.491Z,99114.06
2022-08-29T03:26:20.584Z,99100.69
2022-08-29T03:28:48.196Z,99121.31
2022-08-29T03:31:15.525Z,99124.66
2022-08-29T03:33:43.182Z,99092.25
2022-08-29T03:36:14.192Z,99119.34
2022-08-29T03:38:42.534Z,99127.78
2022-08-29T03:41:09.827Z,99130.22
2022-08-29T03:43:36.707Z,99138.25
2022-08-29T03:46:03.730Z,99134.66
2022-08-29T03:48:30.639Z,99143.09
2022-08-29T03:50:57.463Z,99128.44
2022-08-29T03:53:24.325Z,99105.88
2022-08-29T03:55:51.945Z,99132.22
2022-08-29T03:58:19.412Z,99138.19
2022-08-29T04:00:46.875Z,99127.44
2022-08-29T04:03:13.984Z,99136.22
2022-08-29T04:05:41.284Z,99147.72
2022-08-29T04:08:08.570Z,99141.63
2022-08-29T04:10:38.358Z,99150.03
2022-08-29T04:13:07.435Z,99148.88
2022-08-29T04:15:35.739Z,99148.59
2022-08-29T04:18:07.020Z,99145.88
2022-08-29T04:20:38.292Z,99141.91
2022-08-29T04:23:06.465Z,99143.78
2022-08-29T04:25:37.560Z,99157.06
2022-08-29T04:28:08.190Z,99142.75
2022-08-29T04:30:36.056Z,99163.56
2022-08-29T04:33:02.897Z,99171.31
2022-08-29T04:35:30.028Z,99168.06
2022-08-29T04:37:57.304Z,99156.78
2022-08-29T04:40:24.262Z,99159.50
2022-08-29T04:42:51.606Z,99170.97
2022-08-29T04:45:22.179Z,99181.25
2022-08-29T04:47:49.683Z,99176.09
2022-08-29T04:50:23.359Z,99171.53
2022-08-29T04:52:52.252Z,99169.72
2022-08-29T04:55:25.645Z,99152.16
2022-08-29T04:57:56.325Z,99166.81
2022-08-29T05:00:28.173Z,99161.81
2022-08-29T05:02:55.802Z,99144.25
2022-08-29T05:05:22.826Z,99172.66
2022-08-29T05:07:49.664Z,99169.66
2022-08-29T05:10:20.269Z,99168.00
2022-08-29T05:12:47.665Z,99176.25
2022-08-29T05:15:16.310Z,99153.78
2022-08-29T05:17:44.559Z,99176.03
2022-08-29T05:20:12.496Z,99179.59
2022-08-29T05:22:42.028Z,99181.78
2022-08-29T05:25:15.750Z,99171.31
2022-08-29T05:27:44.501Z,99177.03
2022-08-29T05:30:11.522Z,99179.66
2022-08-29T05:32:39.124Z,99182.50
2022-08-29T05:35:06.349Z,99188.06
2022-08-29T05:37:33.658Z,99196.53
2022-08-29T05:40:00.608Z,99174.34
2022-08-29T05:42:27.600Z,99173.19
2022-08-29T05:44:54.470Z,99205.31
2022-08-29T05:47:21.790Z,99177.91
2022-08-29T05:49:49.558Z,99194.16
2022-08-29T05:52:19.345Z,99203.59
2022-08-29T05:54:46.814Z,99182.38
2022-08-29T05:57:19.408Z,99176.72
2022-08-29T05:59:48.030Z,99210.06
2022-08-29T06:02:15.294Z,99206.72
2022-08-29T06:04:42.319Z,99186.75
2022-08-29T06:07:09.951Z,99211.59
2022-08-29T06:09:38.626Z,99215.91
2022-08-29T06:12:06.702Z,99219.84
2022-08-29T06:14:34.532Z,99202.59
2022-08-29T06:17:02.116Z,99210.22
2022-08-29T06:19:31.962Z,99213.34
2022-08-29T06:21:58.786Z,99208.09
2022-08-29T06:24:25.696Z,99200.59
2022-08-29T06:26:52.514Z,99210.19
2022-08-29T06:29:19.318Z,99212.44
2022-08-29T06:31:46.245Z,99206.69
2022-08-29T06:34:13.163Z,99217.06
2022-08-29T06:36:40.215Z,99195.84
2022-08-29T06:39:10.160Z,99226.91
2022-08-29T06:41:40.007Z,99222.50
2022-08-29T06:44:08.265Z,99229.16
2022-08-29T06:46:39.524Z,99226.00
2022-08-29T06:49:10.306Z,99226.84
2022-08-29T06:51:39.618Z,99221.38
2022-08-29T06:54:09.258Z,99223.25
2022-08-29T06:56:38.117Z,99199.41
2022-08-29T06:59:06.834Z,99231.38
2022-08-29T07:01:34.390Z,99193.31
2022-08-29T07:04:02.457Z,99232.75
2022-08-29T07:06:31.056Z,99221.22
2022-08-29T07:08:59.565Z,99233.25
2022-08-29T07:11:32.567Z,99233.00
2022-08-29T07:14:04.153Z,99241.59
2022-08-29T07:16:34.029Z,99233.78
2022-08-29T07:19:03.466Z,99227.94
2022-08-29T07:21:30.353Z,99230.69
2022-08-29T07:23:58.210Z,99219.59
2022-08-29T07:26:36.796Z,99228.31
2022-08-29T07:29:10.407Z,99226.41
2022-08-29T07:31:39.203Z,99228.06
2022-08-29T07:34:07.423Z,99221.78
2022-08-29T07:36:35.060Z,99228.47
2022-08-29T07:39:07.062Z,99205.44
2022-08-29T07:41:34.022Z,99200.78
2022-08-29T07:44:00.961Z,99221.09
2022-08-29T07:46:27.875Z,99212.72
2022-08-29T07:48:54.779Z,99214.91
2022-08-29T07:51:23.550Z,99202.97
2022-08-29T07:53:52.245Z,99201.06
2022-08-29T07:56:33.426Z,99224.22
2022-08-29T07:59:04.136Z,99206.09
2022-08-29T08:01:31.102Z,99217.78
2022-08-29T08:03:58.442Z,99200.59
2022-08-29T08:06:27.047Z,99221.88
2022-08-29T08:08:54.961Z,99229.97
2022-08-29T08:11:23.302Z,99226.41
2022-08-29T08:13:50.318Z,99228.66
2022-08-29T08:16:20.449Z,99227.56
2022-08-29T08:18:48.278Z,99216.13
2022-08-29T08:21:15.818Z,99219.09
2022-08-29T08:23:43.225Z,99229.94
2022-08-29T08:26:12.698Z,99226.84
2022-08-29T08:28:40.590Z,99231.13
2022-08-29T08:31:09.591Z,99235.50
2022-08-29T08:33:40.826Z,99235.59
2022-08-29T08:36:24.686Z,99214.25
2022-08-29T08:38:53.362Z,99221.81
2022-08-29T08:42:07.074Z,99220.66
2022-08-29T08:45:00.619Z,99222.91
2022-08-29T08:47:56.708Z,99201.53
2022-08-29T08:51:00.738Z,99226.59
2022-08-29T08:53:39.912Z,99226.41
2022-08-29T08:56:32.157Z,99225.38
2022-08-29T08:59:21.487Z,99207.25
2022-08-29T09:02:11.938Z,99211.22
2022-08-29T09:05:08.983Z,99219.56
2022-08-29T09:07:57.606Z,99201.19
2022-08-29T09:10:37.141Z,99211.00
2022-08-29T09:13:38.446Z,99213.41
2022-08-29T09:16:31.506Z,99218.31
2022-08-29T09:19:09.619Z,99212.25
2022-08-29T09:22:02.200Z,99211.97
2022-08-29T09:24:49.041Z,99208.59
2022-08-29T09:27:28.883Z,99217.09
2022-08-29T09:30:28.291Z,99217.81
2022-08-29T09:33:08.959Z,99211.53
2022-08-29T09:35:47.894Z,99205.72
2022-08-29T09:38:17.709Z,99210.47
2022-08-29T09:41:07.986Z,99202.69
2022-08-29T09:43:43.555Z,99207.34
2022-08-29T09:46:21.057Z,99205.19
2022-08-29T09:49:00.165Z,99206.44
2022-08-29T09:51:37.924Z,99177.69
2022-08-29T09:54:26.715Z,99203.38
2022-08-29T09:57:09.406Z,99208.66
2022-08-29T09:59:45.227Z,99199.31
2022-08-29T10:02:15.281Z,99202.00
2022-08-29T10:04:47.346Z,99184.94
2022-08-29T10:07:30.461Z,99183.00
2022-08-29T10:10:19.984Z,99186.47
2022-08-29T10:13:15.342Z,99150.56
2022-08-29T10:16:06.333Z,99184.94
2022-08-29T10:19:06.993Z,99190.72
2022-08-29T10:22:27.541Z,99190.97
2022-08-29T10:25:24.458Z,99209.31
2022-08-29T10:28:15.156Z,99202.63
2022-08-29T10:31:13.338Z,99198.78
2022-08-29T10:34:06.492Z,99191.56
2022-08-29T10:36:38.600Z,99187.00
2022-08-29T10:39:43.288Z,99192.16
2022-08-29T10:42:19.350Z,99194.03
2022-08-29T10:44:55.939Z,99193.31
2022-08-29T10:47:46.664Z,99190.03
2022-08-29T10:50:45.257Z,99190.72
2022-08-29T10:53:20.518Z,99166.03
2022-08-29T10:56:14.050Z,99185.91
2022-08-29T10:58:59.649Z,99190.75
2022-08-29T11:01:45.758Z,99172.22
2022-08-29T11:04:46.015Z,99178.56
2022-08-29T11:07:39.905Z,99177.66
2022-08-29T11:10:21.384Z,99159.41
2022-08-29T11:13:28.816Z,99171.75
2022-08-29T11:16:29.609Z,99142.59
2022-08-29T11:19:05.002Z,99164.28
2022-08-29T11:21:42.890Z,99156.56
2022-08-29T11:24:12.093Z,99149.63
2022-08-29T11:27:10.078Z,99157.19
2022-08-29T11:29:53.462Z,99139.94
2022-08-29T11:33:01.987Z,99121.47
2022-08-29T11:36:22.070Z,99151.88
2022-08-29T11:39:09.080Z,99153.88
2022-08-29T11:41:46.545Z,99119.00
2022-08-29T11:44:34.122Z,99135.28
2022-08-29T11:48:00.515Z,99143.72
2022-08-29T11:50:37.870Z,99137.75
2022-08-29T11:53:16.760Z,99130.13
2022-08-29T11:56:14.066Z,99137.59
2022-08-29T11:58:50.184Z,99123.34
2022-08-29T12:01:58.443Z,99128.16
2022-08-29T12:05:29.174Z,99121.31
2022-08-29T12:08:14.418Z,99119.84
2022-08-29T12:10:56.000Z,99118.03
2022-08-29T12:13:48.120Z,99118.50
2022-08-29T12:16:19.661Z,99098.81
2022-08-29T12:19:01.012Z,99120.00
2022-08-29T12:21:45.508Z,99123.56
2022-08-29T12:24:40.910Z,99118.97
2022-08-29T12:27:46.112Z,99114.34
2022-08-29T12:30:14.425Z,99110.38
2022-08-29T12:33:03.912Z,99090.31
2022-08-29T12:36:18.817Z,99108.06
2022-08-29T12:39:19.435Z,99111.69
2022-08-29T12:42:07.181Z,99101.06
2022-08-29T12:44:45.392Z,99097.25
2022-08-29T12:47:22.020Z,99100.41
2022-08-29T12:49:55.808Z,99094.75
2022-08-29T12:52:37.708Z,99085.81
2022-08-29T12:55:29.089Z,99078.81
2022-08-29T12:57:57.495Z,99067.88
2022-08-29T13:00:30.199Z,99075.19
2022-08-29T13:03:18.676Z,99077.66
2022-08-29T13:05:47.272Z,99080.50
2022-08-29T13:08:33.682Z,99086.47
2022-08-29T13:11:07.790Z,99075.66
2022-08-29T13:13:35.733Z,99061.91
2022-08-29T13:16:08.105Z,99064.25
2022-08-29T13:18:48.834Z,99071.19
2022-08-29T13:21:31.748Z,99071.47
2022-08-29T13:24:12.341Z,99058.78
2022-08-29T13:27:04.179Z,99060.25
2022-08-29T13:29:40.177Z,99064.66
2022-08-29T13:32:26.704Z,99066.34
2022-08-29T13:35:28.427Z,99063.09
2022-08-29T13:38:19.524Z,99058.94
2022-08-29T13:40:52.945Z,99055.06
2022-08-29T13:43:38.518Z,99051.16
2022-08-29T13:46:14.874Z,99051.91
2022-08-29T13:48:43.625Z,99060.09
2022-08-29T13:51:10.767Z,99031.06
2022-08-29T13:53:37.674Z,99051.78
2022-08-29T13:56:11.408Z,99039.22
2022-08-29T13:58:38.252Z,99046.78
2022-08-29T14:01:29.373Z,99056.88
2022-08-29T14:03:52.608Z,99049.44
2022-08-29T14:06:22.594Z,99061.00
2022-08-29T14:08:51.046Z,99053.50
2022-08-29T14:11:18.353Z,99049.72
2022-08-29T14:13:45.676Z,99041.78
2022-08-29T14:16:13.933Z,99032.13
2022-08-29T14:18:41.006Z,99041.69
2022-08-29T14:21:07.984Z,99024.84
2022-08-29T14:23:34.886Z,99039.41
2022-08-29T14:26:01.978Z,99038.16
2022-08-29T14:28:28.913Z,99033.34
2022-08-29T14:30:55.883Z,99030.53
2022-08-29T14:33:23.553Z,99033.03
2022-08-29T14:35:51.838Z,99028.91
2022-08-29T14:38:19.304Z,99040.88
2022-08-29T14:40:46.474Z,99019.84
2022-08-29T14:43:13.512Z,99010.28
2022-08-29T14:45:40.332Z,99013.41
2022-08-29T14:48:07.244Z,99009.25
2022-08-29T14:50:34.181Z,99006.78
2022-08-29T14:53:01.091Z,99018.38
2022-08-29T14:55:29.310Z,99008.47
2022-08-29T14:57:56.211Z,99015.50
2022-08-29T15:00:28.849Z,99012.34
2022-08-29T15:02:56.491Z,99008.44
2022-08-29T15:05:23.971Z,99006.66
2022-08-29T15:07:51.154Z,99016.81
2022-08-29T15:10:22.176Z,99011.63
2022-08-29T15:12:49.182Z,99014.09
2022-08-29T15:15:16.122Z,99006.63
2022-08-29T15:17:43.770Z,98994.41
2022-08-29T15:23:00.523Z,99003.50
2022-08-29T15:25:27.365Z,98993.53
2022-08-29T15:27:54.239Z,98993.69
2022-08-29T15:30:24.690Z,98988.69
2022-08-29T15:32:52.186Z,98985.38
2022-08-29T15:35:19.128Z,98991.00
2022-08-29T15:37:45.988Z,98984.34
2022-08-29T15:40:13.758Z,98980.53
2022-08-29T15:42:41.060Z,98966.09
2022-08-29T15:45:12.034Z,98979.50
2022-08-29T15:47:39.851Z,98981.69
2022-08-29T15:50:08.623Z,98970.38
2022-08-29T15:52:36.902Z,98972.53
2022-08-29T15:55:06.379Z,98967.97
2022-08-29T15:57:33.540Z,98970.19
2022-08-29T16:00:29.373Z,98942.00
2022-08-29T16:02:59.724Z,98964.66
2022-08-29T16:05:26.644Z,98955.75
2022-08-29T16:07:53.505Z,98961.44
2022-08-29T16:10:20.529Z,98957.47
2022-08-29T16:12:47.338Z,98948.53
2022-08-29T16:15:14.433Z,98965.06
2022-08-29T16:17:41.395Z,98957.81
2022-08-29T16:20:11.922Z,98951.25
2022-08-29T16:22:41.053Z,98931.88
2022-08-29T16:25:10.797Z,98965.81
2022-08-29T16:27:37.632Z,98961.50
2022-08-29T16:30:06.487Z,98955.03
2022-08-29T16:32:33.729Z,98939.59
2022-08-29T16:35:00.557Z,98951.78
2022-08-29T16:37:27.659Z,98944.75
2022-08-29T16:39:54.963Z,98946.03
2022-08-29T16:42:22.035Z,98951.66
2022-08-29T16:44:48.889Z,98943.97
2022-08-29T16:47:15.697Z,98950.59
2022-08-29T16:49:42.628Z,98941.78
2022-08-29T16:52:09.437Z,98940.66
2022-08-29T16:54:36.303Z,98947.09
2022-08-29T16:57:03.257Z,98947.66
2022-08-29T16:59:30.154Z,98944.03
2022-08-29T17:01:57.039Z,98941.84
2022-08-29T17:04:27.687Z,98945.31
2022-08-29T17:06:55.945Z,98919.81
2022-08-29T17:09:25.031Z,98947.19
2022-08-29T17:11:53.624Z,98952.06
2022-08-29T17:14:22.184Z,98941.75
2022-08-29T17:16:51.501Z,98948.44
2022-08-29T17:19:19.597Z,98941.81
2022-08-29T17:21:47.767Z,98947.84
2022-08-29T17:24:15.339Z,98951.00
2022-08-29T17:26:46.088Z,98943.94
2022-08-29T17:29:13.912Z,98946.59
2022-08-29T17:31:41.050Z,98942.84
2022-08-29T17:34:09.269Z,98940.88
2022-08-29T17:36:37.692Z,98951.97
2022-08-29T17:39:06.454Z,98950.66
2022-08-29T17:41:37.125Z,98959.34
2022-08-29T17:44:06.873Z,98952.19
2022-08-29T17:46:33.827Z,98942.44
2022-08-29T17:49:05.539Z,98954.72
2022-08-29T17:51:34.770Z,98941.34
2022-08-29T17:54:01.629Z,98950.09
2022-08-29T17:56:49.094Z,98957.75
2022-08-29T17:59:18.752Z,98949.50
2022-08-29T18:01:46.511Z,98972.72
2022-08-29T18:04:14.298Z,98966.09
2022-08-29T18:06:41.725Z,98972.91
2022-08-29T18:09:09.211Z,98966.47
2022-08-29T18:11:43.520Z,98973.41
2022-08-29T18:14:11.462Z,98973.75
2022-08-29T18:16:38.650Z,98981.88
2022-08-29T18:19:06.696Z,98974.75
2022-08-29T18:21:33.950Z,98992.34
2022-08-29T18:24:00.926Z,98993.81
2022-08-29T18:26:27.959Z,98974.94
2022-08-29T18:28:56.060Z,98982.06
2022-08-29T18:31:23.559Z,98996.47
2022-08-29T18:34:06.176Z,99000.28
2022-08-29T18:36:36.658Z,98988.13
2022-08-29T18:39:06.344Z,98996.06
2022-08-29T18:41:33.730Z,99000.88
2022-08-29T18:44:00.575Z,98993.88
2022-08-29T18:46:28.442Z,99013.88
2022-08-29T18:48:55.396Z,99006.75
2022-08-29T18:51:22.245Z,99006.41
2022-08-29T18:53:49.165Z,99013.63
2022-08-29T18:56:16.213Z,99026.59
2022-08-29T18:58:46.718Z,99027.88
2022-08-29T19:01:27.156Z,99028.53
2022-08-29T19:03:57.673Z,99014.31
2022-08-29T19:06:25.784Z,99031.09
2022-08-29T19:08:56.481Z,99029.41
2022-08-29T19:11:24.492Z,99030.53
2022-08-29T19:13:52.191Z,99036.75
2022-08-29T19:16:21.557Z,99043.56
2022-08-29T19:18:48.995Z,99019.81
2022-08-29T19:21:15.892Z,99037.19
2022-08-29T19:23:52.347Z,99044.28
2022-08-29T19:26:35.605Z,99040.13
2022-08-29T19:29:12.385Z,99044.09
2022-08-29T19:31:41.095Z,99047.72
2022-08-29T19:34:07.998Z,99048.19
2022-08-29T19:36:34.856Z,99031.44
2022-08-29T19:39:01.673Z,99034.81
2022-08-29T19:41:28.481Z,99040.59
2022-08-29T19:43:55.319Z,99054.50
2022-08-29T19:46:24.030Z,99047.38
2022-08-29T19:48:52.303Z,99050.03
2022-08-29T19:51:24.610Z,99056.97
2022-08-29T19:53:53.270Z,99057.91
2022-08-29T19:56:20.311Z,99040.88
2022-08-29T19:58:47.583Z,99040.88
2022-08-29T20:01:17.026Z,99046.41
2022-08-29T20:03:43.958Z,99067.47
2022-08-29T20:06:12.220Z,99068.88
2022-08-29T20:08:42.682Z,99069.19
2022-08-29T20:11:19.093Z,99062.03
2022-08-29T20:13:51.550Z,99081.78
2022-08-29T20:16:23.729Z,99059.91
2022-08-29T20:18:52.121Z,99085.47
2022-08-29T20:21:20.757Z,99069.81
2022-08-29T20:23:52.868Z,99083.56
2022-08-29T20:26:24.158Z,99081.34
2022-08-29T20:28:54.022Z,99081.63
2022-08-29T20:31:22.221Z,99087.22
2022-08-29T20:33:49.276Z,99086.38
2022-08-29T20:36:41.070Z,99086.84
2022-08-29T20:39:11.288Z,99081.81
2022-08-29T20:41:38.366Z,99084.53
2022-08-29T20:44:10.098Z,99090.63
2022-08-29T20:46:42.052Z,99096.59
2022-08-29T20:49:11.533Z,99100.81
2022-08-29T20:51:43.272Z,99102.06
2022-08-29T20:54:12.787Z,99094.59
2022-08-29T20:56:39.703Z,99075.59
2022-08-29T20:59:07.173Z,99098.22
2022-08-29T21:01:35.925Z,99095.03
2022-08-29T21:04:24.205Z,99097.28
2022-08-29T21:07:00.161Z,99097.44
2022-08-29T21:09:27.891Z,99093.56
2022-08-29T21:11:55.558Z,99102.13
2022-08-29T21:14:22.887Z,99101.47
2022-08-29T21:16:52.103Z,99106.88
2022-08-29T21:19:19.302Z,99093.31
2022-08-29T21:21:46.296Z,99108.44
2022-08-29T21:24:13.472Z,99108.84
2022-08-29T21:26:40.481Z,99107.31
2022-08-29T21:29:08.572Z,99099.00
2022-08-29T21:31:36.142Z,99102.06
2022-08-29T21:34:06.960Z,99120.78
2022-08-29T21:36:35.865Z,99109.69
2022-08-29T21:39:04.188Z,99131.63
2022-08-29T21:41:32.601Z,99113.59
2022-08-29T21:43:59.950Z,99127.31
2022-08-29T21:46:30.501Z,99112.91
2022-08-29T21:49:01.657Z,99117.34
2022-08-29T21:51:30.762Z,99121.63
2022-08-29T21:53:58.593Z,99119.97
2022-08-29T21:56:28.638Z,99104.84
2022-08-29T21:58:56.773Z,99126.63
2022-08-29T22:01:33.783Z,99125.50
2022-08-29T22:04:02.401Z,99131.78
2022-08-29T22:06:29.768Z,99124.41
2022-08-29T22:08:57.527Z,99123.59
2022-08-29T22:11:37.482Z,99120.09
2022-08-29T22:14:07.144Z,99087.47
2022-08-29T22:16:35.635Z,99110.78
2022-08-29T22:19:15.525Z,99117.84
2022-08-29T22:21:46.575Z,99120.63
2022-08-29T22:24:16.098Z,99126.84
2022-08-29T22:26:44.881Z,99122.13
2022-08-29T22:29:15.993Z,99126.84
2022-08-29T22:31:44.855Z,99121.00
2022-08-29T22:34:17.687Z,99109.06
2022-08-29T22:36:45.546Z,99131.25
2022-08-29T22:39:12.678Z,99132.25
2022-08-29T22:41:41.311Z,99124.28
2022-08-29T22:47:00.189Z,99109.69
2022-08-29T22:49:33.237Z,99102.31
2022-08-29T22:52:00.704Z,99105.78
2022-08-29T22:54:36.434Z,99113.13
2022-08-29T22:57:13.683Z,99116.88
2022-08-29T22:59:42.277Z,99121.69
2022-08-29T23:02:10.599Z,99119.53
2022-08-29T23:04:38.542Z,99118.69
2022-08-29T23:07:06.389Z,99117.25
2022-08-29T23:09:35.450Z,99116.66
2022-08-29T23:12:05.031Z,99125.22
2022-08-29T23:14:34.800Z,99122.28
2022-08-29T23:17:02.693Z,99108.41
2022-08-29T23:19:29.514Z,99123.41
2022-08-29T23:21:58.071Z,99110.28
2022-08-29T23:24:26.231Z,99124.13
2022-08-29T23:26:53.484Z,99121.28
2022-08-29T23:29:20.756Z,99117.81
2022-08-29T23:31:47.591Z,99109.41
2022-08-29T23:34:14.443Z,99101.06
2022-08-29T23:36:41.336Z,99111.66
2022-08-29T23:39:08.597Z,99118.13
2022-08-29T23:41:36.264Z,99114.78
2022-08-29T23:44:03.509Z,99126.66
2022-08-29T23:46:30.371Z,99128.91
2022-08-29T23:48:58.332Z,99126.22
2022-08-29T23:51:25.154Z,99132.94
2022-08-29T23:53:52.086Z,99118.16
2022-08-29T23:56:21.298Z,99128.03
2022-08-29T23:58:48.678Z,99122.56
